Time;durP1;ratioP1;P1;durP2;ratioP2;P2;SDS_P1;SDS_P2;PMS_P1;PMS_P2;Temp;Humidity;BMP_temperature;BMP_pressure;BME280_temperature;BME280_humidity;BME280_pressure;Samples;Min_cycle;Max_cycle;Signal;HPM_P1;HPM_P2
2024/01/08 00:01:35;;;;;;;6.43;5.40;;;-0.60;99.90;;;;;;5098531;28;20391;-36
2024/01/08 00:04:00;;;;;;;5.80;4.85;;;-0.50;99.90;;;;;;5098675;28;20031;-41
2024/01/08 00:06:26;;;;;;;6.78;5.15;;;-0.50;99.90;;;;;;5099024;28;20398;-39
2024/01/08 00:08:52;;;;;;;7.32;6.10;;;-0.50;99.90;;;;;;5098430;28;20028;-37
2024/01/08 00:11:17;;;;;;;6.32;5.72;;;-0.50;99.90;;;;;;5098023;28;20023;-37
2024/01/08 00:13:43;;;;;;;7.63;6.32;;;-0.50;99.90;;;;;;5102000;28;20351;-36
2024/01/08 00:16:09;;;;;;;7.28;5.72;;;-0.50;99.90;;;;;;5101820;28;20020;-37
2024/01/08 00:18:35;;;;;;;6.78;5.85;;;-0.60;99.90;;;;;;5102925;28;20023;-36
2024/01/08 00:21:02;;;;;;;6.50;5.45;;;-0.60;99.90;;;;;;5101813;28;20110;-36
2024/01/08 00:23:34;;;;;;;7.55;5.60;;;-0.60;99.90;;;;;;5100074;28;20035;-37
2024/01/08 00:25:59;;;;;;;5.93;5.18;;;-0.60;99.90;;;;;;5102305;28;20040;-37
2024/01/08 00:28:26;;;;;;;5.75;4.93;;;-0.60;99.90;;;;;;5101720;28;20034;-37
2024/01/08 00:30:52;;;;;;;5.82;5.15;;;-0.60;99.90;;;;;;5101749;28;20116;-37
2024/01/08 00:33:18;;;;;;;6.13;5.28;;;-0.60;99.90;;;;;;5101662;28;20020;-36
2024/01/08 00:35:43;;;;;;;5.22;4.72;;;-0.60;99.90;;;;;;5102260;28;20497;-36
2024/01/08 00:38:09;;;;;;;7.63;5.50;;;-0.60;99.90;;;;;;5102235;28;20023;-37
2024/01/08 00:40:35;;;;;;;5.60;4.93;;;-0.70;99.90;;;;;;5103067;28;20031;-37
2024/01/08 00:43:00;;;;;;;6.22;5.22;;;-0.80;99.90;;;;;;5101673;28;20052;-37
2024/01/08 00:45:26;;;;;;;5.55;4.80;;;-0.80;99.90;;;;;;5101784;28;20471;-36
2024/01/08 00:47:51;;;;;;;6.45;5.38;;;-0.90;99.90;;;;;;5102120;28;20126;-36
2024/01/08 00:50:17;;;;;;;5.18;4.65;;;-0.90;99.90;;;;;;5101090;28;20027;-36
2024/01/08 00:52:43;;;;;;;5.63;4.80;;;-1.00;99.90;;;;;;5101909;28;20026;-37
2024/01/08 00:55:11;;;;;;;5.50;4.70;;;-1.00;99.90;;;;;;5081521;28;20028;-38
2024/01/08 00:57:38;;;;;;;5.05;4.40;;;-1.00;99.90;;;;;;5095308;28;20421;-37
2024/01/08 01:00:05;;;;;;;5.20;4.70;;;-1.00;99.90;;;;;;5101570;28;20100;-38
2024/01/08 01:02:31;;;;;;;7.57;5.32;;;-1.10;99.90;;;;;;5101555;28;20027;-37
2024/01/08 01:04:57;;;;;;;7.22;5.70;;;-1.10;99.90;;;;;;5100925;28;20132;-37
2024/01/08 01:07:23;;;;;;;5.15;4.65;;;-1.20;99.90;;;;;;5101807;28;20616;-37
2024/01/08 01:09:49;;;;;;;5.05;4.55;;;-1.20;99.90;;;;;;5101896;28;20102;-36
2024/01/08 01:12:14;;;;;;;6.47;5.35;;;-1.20;99.90;;;;;;5100189;28;20027;-37
2024/01/08 01:14:43;;;;;;;7.57;5.10;;;-1.20;99.90;;;;;;5101052;28;20553;-37
2024/01/08 01:17:08;;;;;;;6.65;5.00;;;-1.30;99.90;;;;;;5099992;28;20632;-37
2024/01/08 01:19:34;;;;;;;6.53;5.30;;;-1.30;99.90;;;;;;5100245;28;20034;-36
2024/01/08 01:22:00;;;;;;;6.20;4.50;;;-1.30;99.90;;;;;;5102111;28;20026;-37
2024/01/08 01:24:25;;;;;;;6.18;4.38;;;-1.30;99.90;;;;;;5100681;28;20091;-36
2024/01/08 01:26:51;;;;;;;5.13;4.20;;;-1.30;99.90;;;;;;5100591;28;20039;-36
2024/01/08 01:29:16;;;;;;;6.23;5.23;;;-1.40;99.90;;;;;;5100721;28;20119;-37
2024/01/08 01:31:43;;;;;;;4.95;4.28;;;-1.40;99.90;;;;;;5101023;28;20536;-38
2024/01/08 01:34:10;;;;;;;6.00;4.70;;;-1.40;99.90;;;;;;5100136;28;20032;-37
2024/01/08 01:36:36;;;;;;;4.85;4.30;;;-1.40;99.90;;;;;;5100654;28;20035;-38
2024/01/08 01:39:05;;;;;;;5.95;4.50;;;-1.50;99.90;;;;;;5100381;28;20043;-38
2024/01/08 01:41:32;;;;;;;5.80;3.92;;;-1.50;99.90;;;;;;5101300;28;20042;-37
2024/01/08 01:43:58;;;;;;;5.43;4.30;;;-1.50;99.90;;;;;;5100613;28;20404;-37
2024/01/08 01:46:35;;;;;;;5.00;4.30;;;-1.60;99.90;;;;;;5099910;28;20047;-37
2024/01/08 01:49:02;;;;;;;6.18;4.55;;;-1.50;99.90;;;;;;5100973;28;20077;-38
2024/01/08 01:51:27;;;;;;;4.95;4.25;;;-1.60;99.90;;;;;;5101229;28;20032;-37
2024/01/08 01:53:54;;;;;;;6.88;4.75;;;-1.60;99.90;;;;;;5100338;28;20015;-35
2024/01/08 01:56:19;;;;;;;6.35;4.57;;;-1.60;99.90;;;;;;5101769;28;20083;-38
2024/01/08 01:58:46;;;;;;;7.03;4.53;;;-1.60;99.90;;;;;;5101310;28;20553;-39
2024/01/08 02:01:12;;;;;;;7.93;4.78;;;-1.60;99.90;;;;;;5100582;28;20046;-37
2024/01/08 02:03:39;;;;;;;6.25;4.85;;;-1.60;99.90;;;;;;5101915;28;20051;-36
2024/01/08 02:06:09;;;;;;;5.17;4.27;;;-1.70;99.90;;;;;;5100600;28;20142;-37
2024/01/08 02:08:36;;;;;;;5.93;4.90;;;-1.70;99.90;;;;;;5100331;28;20156;-38
2024/01/08 02:11:03;;;;;;;4.68;4.18;;;-1.70;99.90;;;;;;5100419;28;20061;-38
2024/01/08 02:13:29;;;;;;;5.47;4.53;;;-1.70;99.90;;;;;;5100600;28;20110;-35
2024/01/08 02:15:55;;;;;;;7.00;4.80;;;-1.70;99.90;;;;;;5100088;28;20030;-36
2024/01/08 02:18:20;;;;;;;6.60;5.47;;;-1.70;99.90;;;;;;5100686;28;20024;-37
2024/01/08 02:20:46;;;;;;;6.87;5.40;;;-1.80;99.90;;;;;;5101053;28;20116;-46
2024/01/08 02:23:12;;;;;;;5.67;4.20;;;-1.80;99.90;;;;;;5100644;28;20564;-36
2024/01/08 02:25:37;;;;;;;7.37;5.37;;;-1.80;99.90;;;;;;5100907;28;20618;-36
2024/01/08 02:28:03;;;;;;;7.20;5.20;;;-1.80;99.90;;;;;;5100211;28;20043;-36
2024/01/08 02:30:29;;;;;;;7.30;5.27;;;-1.80;99.90;;;;;;5100411;28;20553;-37
2024/01/08 02:32:54;;;;;;;7.03;5.30;;;-1.90;99.90;;;;;;5098442;28;20036;-38
2024/01/08 02:35:20;;;;;;;6.30;5.47;;;-1.90;99.90;;;;;;5098351;28;20023;-36
2024/01/08 02:37:45;;;;;;;6.53;5.40;;;-1.90;99.90;;;;;;5099614;28;20028;-38
2024/01/08 02:40:11;;;;;;;6.87;5.07;;;-1.90;99.90;;;;;;5098768;28;20156;-37
2024/01/08 02:42:41;;;;;;;7.97;4.90;;;-1.90;99.90;;;;;;5100794;28;20042;-37
2024/01/08 02:45:08;;;;;;;7.70;5.27;;;-1.90;99.90;;;;;;5099867;28;20024;-37
2024/01/08 02:47:37;;;;;;;6.23;4.60;;;-1.90;99.90;;;;;;5100257;28;20100;-36
2024/01/08 02:50:05;;;;;;;6.30;5.37;;;-1.90;99.90;;;;;;5099450;28;20084;-39
2024/01/08 02:52:31;;;;;;;6.33;5.03;;;-1.90;99.90;;;;;;5100039;28;20023;-37
2024/01/08 02:54:56;;;;;;;6.80;5.27;;;-1.90;99.90;;;;;;5100164;28;20172;-38
2024/01/08 02:57:22;;;;;;;6.67;4.80;;;-1.90;99.90;;;;;;5099572;28;20538;-37
2024/01/08 02:59:48;;;;;;;6.47;5.33;;;-1.90;99.90;;;;;;5100872;28;20030;-37
2024/01/08 03:02:13;;;;;;;9.30;5.60;;;-1.90;99.90;;;;;;5099581;28;20378;-36
2024/01/08 03:04:39;;;;;;;7.43;5.50;;;-1.90;99.90;;;;;;5100004;28;20835;-37
2024/01/08 03:07:04;;;;;;;6.87;5.77;;;-1.80;99.90;;;;;;5099733;28;20063;-36
2024/01/08 03:09:30;;;;;;;8.97;5.90;;;-1.80;99.90;;;;;;5099395;28;20028;-37
2024/01/08 03:11:56;;;;;;;8.67;6.33;;;-1.80;99.90;;;;;;5099422;28;20792;-37
2024/01/08 03:14:21;;;;;;;7.20;6.00;;;-1.80;99.90;;;;;;5100379;28;20042;-37
2024/01/08 03:16:47;;;;;;;7.73;5.47;;;-1.80;99.90;;;;;;5099896;28;20065;-37
2024/01/08 03:19:13;;;;;;;8.63;5.60;;;-1.80;99.90;;;;;;5098930;28;20031;-36
2024/01/08 03:21:39;;;;;;;7.43;5.57;;;-1.70;99.90;;;;;;5099367;28;20032;-36
2024/01/08 03:24:05;;;;;;;8.10;5.87;;;-1.70;99.90;;;;;;5099213;28;20016;-36
2024/01/08 03:26:31;;;;;;;8.57;5.33;;;-1.70;99.90;;;;;;5098929;28;20031;-35
2024/01/08 03:28:58;;;;;;;6.50;5.37;;;-1.70;99.90;;;;;;5099562;28;20840;-37
2024/01/08 03:31:23;;;;;;;8.93;5.70;;;-1.70;99.90;;;;;;5098403;28;20694;-36
2024/01/08 03:33:49;;;;;;;7.73;5.43;;;-1.60;99.90;;;;;;5099359;28;20050;-36
2024/01/08 03:36:15;;;;;;;8.02;5.45;;;-1.70;99.90;;;;;;5098779;28;20085;-37
2024/01/08 03:38:41;;;;;;;6.97;5.60;;;-1.70;99.90;;;;;;5098886;28;20055;-36
2024/01/08 03:41:06;;;;;;;8.60;5.80;;;-1.60;99.90;;;;;;5099208;28;20147;-36
2024/01/08 03:43:32;;;;;;;9.45;5.53;;;-1.60;99.90;;;;;;5098565;28;20699;-36
2024/01/08 03:45:58;;;;;;;7.28;5.50;;;-1.60;99.90;;;;;;5097863;28;20092;-35
2024/01/08 03:48:23;;;;;;;7.73;5.80;;;-1.50;99.90;;;;;;5101092;28;20024;-37
2024/01/08 03:50:49;;;;;;;8.73;5.73;;;-1.50;99.90;;;;;;5103366;28;20039;-36
2024/01/08 03:53:14;;;;;;;9.33;5.57;;;-1.50;99.90;;;;;;5101736;28;20019;-36
2024/01/08 03:55:40;;;;;;;9.33;6.57;;;-1.50;99.90;;;;;;5103319;28;20031;-37
2024/01/08 03:58:06;;;;;;;9.32;6.03;;;-1.40;99.90;;;;;;5103171;28;20034;-36
2024/01/08 04:00:31;;;;;;;9.20;5.90;;;-1.50;99.90;;;;;;5103382;28;20032;-36
2024/01/08 04:02:57;;;;;;;8.27;5.30;;;-1.50;99.90;;;;;;5103917;28;20898;-36
2024/01/08 04:05:23;;;;;;;8.32;5.97;;;-1.50;99.90;;;;;;5102815;28;20139;-36
2024/01/08 04:07:48;;;;;;;8.23;5.60;;;-1.40;99.90;;;;;;5102786;28;20030;-36
2024/01/08 04:10:14;;;;;;;8.47;5.77;;;-1.40;99.90;;;;;;5101877;28;20926;-37
2024/01/08 04:12:39;;;;;;;8.33;5.50;;;-1.40;99.90;;;;;;5103222;28;20092;-37
2024/01/08 04:15:06;;;;;;;6.57;5.00;;;-1.40;99.90;;;;;;5101989;28;20107;-37
2024/01/08 04:17:31;;;;;;;8.82;5.72;;;-1.30;99.90;;;;;;5103355;28;20035;-37
2024/01/08 04:19:57;;;;;;;7.53;5.67;;;-1.30;99.90;;;;;;5102387;28;20027;-37
2024/01/08 04:22:23;;;;;;;7.20;5.40;;;-1.30;99.90;;;;;;5102156;28;20210;-37
2024/01/08 04:24:48;;;;;;;7.07;5.77;;;-1.30;99.90;;;;;;5102513;28;20042;-36
2024/01/08 04:27:14;;;;;;;8.87;5.37;;;-1.30;99.90;;;;;;5102162;28;20027;-37
2024/01/08 04:29:39;;;;;;;9.37;6.17;;;-1.30;99.90;;;;;;5101983;28;20093;-35
2024/01/08 04:32:05;;;;;;;10.60;6.63;;;-1.30;99.90;;;;;;5102033;28;20542;-37
2024/01/08 04:34:31;;;;;;;8.70;6.53;;;-1.20;99.90;;;;;;5102193;28;20027;-37
2024/01/08 04:36:56;;;;;;;8.43;5.90;;;-1.20;99.90;;;;;;5101951;28;20471;-35
2024/01/08 04:39:22;;;;;;;8.65;6.03;;;-1.20;99.90;;;;;;5102446;28;20027;-37
2024/01/08 04:41:47;;;;;;;8.82;6.00;;;-1.20;99.90;;;;;;5102013;28;20032;-37
2024/01/08 04:44:13;;;;;;;9.35;6.57;;;-1.20;99.90;;;;;;5101957;28;20032;-37
2024/01/08 04:46:42;;;;;;;10.77;7.38;;;-1.10;99.90;;;;;;5102044;28;20074;-36
2024/01/08 04:49:07;;;;;;;9.10;6.60;;;-1.10;99.90;;;;;;5100948;28;20016;-36
2024/01/08 04:51:33;;;;;;;10.73;7.60;;;-1.10;99.90;;;;;;5102422;28;20027;-36
2024/01/08 04:54:00;;;;;;;8.53;6.23;;;-1.10;99.90;;;;;;5102617;28;20035;-37
2024/01/08 04:56:27;;;;;;;10.30;8.00;;;-1.10;99.90;;;;;;5101743;28;20579;-36
2024/01/08 04:58:59;;;;;;;9.98;6.90;;;-1.10;99.90;;;;;;5101779;28;20046;-35
2024/01/08 05:01:24;;;;;;;10.30;7.68;;;-1.10;99.90;;;;;;5101791;28;20034;-38
2024/01/08 05:03:50;;;;;;;10.13;6.90;;;-1.10;99.90;;;;;;5102071;28;20023;-40
2024/01/08 05:06:16;;;;;;;11.35;6.82;;;-1.10;99.90;;;;;;5101537;28;20043;-37
2024/01/08 05:08:42;;;;;;;10.10;7.40;;;-1.10;99.90;;;;;;5101725;28;20040;-37
2024/01/08 05:11:08;;;;;;;9.65;7.28;;;-1.10;99.90;;;;;;5100505;28;20501;-37
2024/01/08 05:13:38;;;;;;;11.67;7.60;;;-1.10;99.90;;;;;;5101947;28;20032;-36
2024/01/08 05:16:06;;;;;;;12.37;7.20;;;-1.10;99.90;;;;;;5102657;28;20034;-37
2024/01/08 05:18:31;;;;;;;10.67;7.67;;;-1.10;99.90;;;;;;5101817;28;20111;-37
2024/01/08 05:20:57;;;;;;;11.60;7.40;;;-1.00;99.90;;;;;;5102614;28;20020;-37
2024/01/08 05:23:23;;;;;;;9.97;7.47;;;-1.00;99.90;;;;;;5102698;28;20028;-37
2024/01/08 05:25:49;;;;;;;11.07;7.47;;;-1.00;99.90;;;;;;5101450;28;20031;-36
2024/01/08 05:28:15;;;;;;;9.23;7.53;;;-1.00;99.90;;;;;;5101372;28;20431;-38
2024/01/08 05:30:41;;;;;;;12.03;8.40;;;-1.00;99.90;;;;;;5101061;28;20479;-37
2024/01/08 05:33:06;;;;;;;10.27;7.40;;;-1.00;99.90;;;;;;5100526;28;20076;-36
2024/01/08 05:35:34;;;;;;;12.00;7.80;;;-1.00;99.90;;;;;;5101521;28;20020;-36
2024/01/08 05:38:01;;;;;;;11.57;7.63;;;-1.00;99.90;;;;;;5100658;28;20031;-36
2024/01/08 05:40:27;;;;;;;10.30;7.35;;;-1.00;99.90;;;;;;5101246;28;20045;-37
2024/01/08 05:42:53;;;;;;;11.45;8.20;;;-1.00;99.90;;;;;;5100901;28;20015;-38
2024/01/08 05:45:18;;;;;;;11.57;6.97;;;-1.00;99.90;;;;;;5100408;28;20030;-36
2024/01/08 05:47:44;;;;;;;11.07;7.40;;;-1.00;99.90;;;;;;5099976;28;20114;-35
2024/01/08 05:50:10;;;;;;;11.10;7.43;;;-0.90;99.90;;;;;;5100790;28;20031;-38
2024/01/08 05:52:35;;;;;;;11.05;7.00;;;-0.90;99.90;;;;;;5100168;28;20042;-39
2024/01/08 05:55:07;;;;;;;11.00;7.75;;;-0.90;99.90;;;;;;5100927;28;20055;-37
2024/01/08 05:57:32;;;;;;;10.87;7.87;;;-0.90;99.90;;;;;;5100979;28;20080;-37
2024/01/08 05:59:58;;;;;;;9.85;7.07;;;-0.90;99.90;;;;;;5099848;28;20033;-37
2024/01/08 06:02:24;;;;;;;10.15;7.10;;;-0.90;99.90;;;;;;5100257;28;20023;-37
2024/01/08 06:04:49;;;;;;;10.02;6.93;;;-0.90;99.90;;;;;;5100325;28;20044;-38
2024/01/08 06:07:16;;;;;;;10.07;6.90;;;-0.80;99.90;;;;;;5099656;28;20023;-38
2024/01/08 06:09:42;;;;;;;10.93;8.05;;;-0.90;99.90;;;;;;5100129;28;20031;-38
2024/01/08 06:12:08;;;;;;;11.02;7.30;;;-0.80;99.90;;;;;;5099519;28;20028;-38
2024/01/08 06:14:34;;;;;;;9.90;7.13;;;-0.80;99.90;;;;;;5100276;28;20426;-38
2024/01/08 06:17:00;;;;;;;10.70;7.73;;;-0.80;99.90;;;;;;5100191;28;20024;-37
2024/01/08 06:19:25;;;;;;;10.35;7.55;;;-0.80;99.90;;;;;;5099996;28;20077;-36
2024/01/08 06:21:51;;;;;;;11.88;8.02;;;-0.80;99.90;;;;;;5100254;28;20074;-39
2024/01/08 06:24:16;;;;;;;8.82;6.85;;;-0.80;99.90;;;;;;5099743;28;20426;-39
2024/01/08 06:26:42;;;;;;;11.70;8.18;;;-0.80;99.90;;;;;;5101215;28;20028;-38
2024/01/08 06:29:08;;;;;;;13.13;7.78;;;-0.80;99.90;;;;;;5099543;28;20029;-37
2024/01/08 06:31:33;;;;;;;10.75;8.00;;;-0.70;99.90;;;;;;5099345;28;20592;-36
2024/01/08 06:34:00;;;;;;;13.85;9.05;;;-0.70;99.90;;;;;;5100328;28;20050;-38
2024/01/08 06:36:25;;;;;;;11.17;7.83;;;-0.70;99.90;;;;;;5099235;28;20808;-37
2024/01/08 06:38:51;;;;;;;11.27;7.87;;;-0.70;99.90;;;;;;5100347;28;20039;-36
2024/01/08 06:41:16;;;;;;;9.15;6.85;;;-0.70;99.90;;;;;;5099502;28;20505;-36
2024/01/08 06:43:42;;;;;;;10.43;7.33;;;-0.70;99.90;;;;;;5099878;28;20034;-41
2024/01/08 06:46:08;;;;;;;9.73;7.57;;;-0.70;99.90;;;;;;5097865;28;20051;-37
2024/01/08 06:48:34;;;;;;;9.80;7.22;;;-0.70;99.90;;;;;;5097815;28;20106;-37
2024/01/08 06:51:01;;;;;;;9.63;7.28;;;-0.70;99.90;;;;;;5098679;28;20030;-37
2024/01/08 06:53:29;;;;;;;10.73;7.65;;;-0.60;99.90;;;;;;5098771;28;20024;-40
2024/01/08 06:55:55;;;;;;;9.02;6.43;;;-0.60;99.90;;;;;;5099541;28;20073;-36
2024/01/08 06:58:20;;;;;;;9.77;6.78;;;-0.60;99.90;;;;;;5098845;28;20027;-37
2024/01/08 07:00:47;;;;;;;10.77;7.13;;;-0.60;99.90;;;;;;5099708;28;20114;-37
2024/01/08 07:03:14;;;;;;;10.97;7.40;;;-0.60;99.90;;;;;;5098432;28;20122;-38
2024/01/08 07:05:40;;;;;;;12.63;7.70;;;-0.60;99.90;;;;;;5099444;28;20048;-37
2024/01/08 07:08:07;;;;;;;10.20;7.75;;;-0.60;99.90;;;;;;5099040;28;20024;-38
2024/01/08 07:10:34;;;;;;;11.13;7.10;;;-0.60;99.90;;;;;;5098791;28;20032;-40
2024/01/08 07:13:00;;;;;;;7.80;5.77;;;-0.60;99.90;;;;;;5099015;28;20054;-36
2024/01/08 07:15:44;;;;;;;10.38;7.10;;;-0.60;99.90;;;;;;5098913;28;20491;-37
2024/01/08 07:18:10;;;;;;;9.18;6.65;;;-0.50;99.90;;;;;;5077208;28;20024;-36
2024/01/08 07:20:37;;;;;;;13.15;7.72;;;-0.50;99.90;;;;;;5095298;28;20028;-36
2024/01/08 07:23:05;;;;;;;9.13;7.10;;;-0.60;99.90;;;;;;5102893;28;20104;-37
2024/01/08 07:25:31;;;;;;;11.38;7.95;;;-0.50;99.90;;;;;;5101558;28;20058;-42
2024/01/08 07:27:58;;;;;;;9.85;6.63;;;-0.60;99.90;;;;;;5101727;28;20474;-37
2024/01/08 07:30:24;;;;;;;9.45;7.07;;;-0.50;99.90;;;;;;5102722;28;20122;-38
2024/01/08 07:32:50;;;;;;;10.20;7.30;;;-0.50;99.90;;;;;;5102258;28;20034;-37
2024/01/08 07:35:16;;;;;;;9.90;7.47;;;-0.50;99.90;;;;;;5103266;28;20028;-44
2024/01/08 07:37:45;;;;;;;9.15;6.35;;;-0.50;99.90;;;;;;5103266;28;20035;-36
2024/01/08 07:40:11;;;;;;;10.07;7.32;;;-0.50;99.90;;;;;;5101970;28;20042;-37
2024/01/08 07:42:36;;;;;;;10.77;6.95;;;-0.50;99.90;;;;;;5103608;28;20473;-37
2024/01/08 07:45:03;;;;;;;9.63;7.10;;;-0.50;99.90;;;;;;5102041;28;20031;-37
2024/01/08 07:47:28;;;;;;;10.07;6.80;;;-0.50;99.90;;;;;;5100853;28;20131;-36
2024/01/08 07:49:54;;;;;;;10.47;7.33;;;-0.50;99.90;;;;;;5102179;28;20416;-37
2024/01/08 07:52:20;;;;;;;9.20;6.75;;;-0.50;99.90;;;;;;5101700;28;20020;-38
2024/01/08 07:54:45;;;;;;;8.55;6.47;;;-0.40;99.90;;;;;;5102313;28;20214;-38
2024/01/08 07:57:11;;;;;;;11.07;7.57;;;-0.40;99.90;;;;;;5100721;28;20081;-37
2024/01/08 07:59:36;;;;;;;10.20;7.03;;;-0.40;99.90;;;;;;5102195;28;20033;-36
2024/01/08 08:02:02;;;;;;;9.00;6.88;;;-0.40;99.90;;;;;;5101143;28;20062;-37
2024/01/08 08:04:28;;;;;;;9.40;6.93;;;-0.40;99.90;;;;;;5100910;28;20696;-37
2024/01/08 08:06:54;;;;;;;10.93;6.83;;;-0.40;99.90;;;;;;5101094;28;20036;-37
2024/01/08 08:09:20;;;;;;;9.00;6.60;;;-0.40;99.90;;;;;;5102714;28;20428;-36
2024/01/08 08:11:45;;;;;;;10.25;7.25;;;-0.40;99.90;;;;;;5101514;28;20059;-38
2024/01/08 08:14:12;;;;;;;8.85;6.85;;;-0.40;99.90;;;;;;5100747;28;20020;-37
2024/01/08 08:16:39;;;;;;;9.25;6.72;;;-0.40;99.90;;;;;;5102537;28;20096;-37
2024/01/08 08:19:04;;;;;;;11.45;7.15;;;-0.40;99.90;;;;;;5103210;28;20046;-38
2024/01/08 08:21:30;;;;;;;8.80;6.57;;;-0.40;99.90;;;;;;5102136;28;20024;-37
2024/01/08 08:23:57;;;;;;;9.27;6.72;;;-0.40;99.90;;;;;;5103140;28;20398;-39
2024/01/08 08:26:23;;;;;;;9.63;6.72;;;-0.40;99.90;;;;;;5102112;28;20142;-36
2024/01/08 08:28:49;;;;;;;10.52;7.15;;;-0.40;99.90;;;;;;5101646;28;20024;-35
2024/01/08 08:31:15;;;;;;;9.10;7.00;;;-0.30;99.90;;;;;;5102163;28;20054;-37
2024/01/08 08:33:42;;;;;;;9.20;7.13;;;-0.30;99.90;;;;;;5098095;28;20050;-38
2024/01/08 08:36:08;;;;;;;7.97;6.75;;;-0.30;99.90;;;;;;5101215;28;20031;-37
2024/01/08 08:38:34;;;;;;;9.02;6.45;;;-0.30;99.90;;;;;;5100707;28;20465;-38
2024/01/08 08:41:00;;;;;;;7.65;6.18;;;-0.30;99.90;;;;;;5099944;28;20024;-39
2024/01/08 08:43:26;;;;;;;10.27;6.80;;;-0.30;99.90;;;;;;5101782;28;20092;-38
2024/01/08 08:45:52;;;;;;;8.25;6.10;;;-0.30;99.90;;;;;;5101783;28;20101;-37
2024/01/08 08:48:18;;;;;;;9.68;7.53;;;-0.30;99.90;;;;;;5101247;28;20027;-38
2024/01/08 08:50:44;;;;;;;8.57;7.10;;;-0.20;99.90;;;;;;5102282;28;20827;-39
2024/01/08 08:53:09;;;;;;;9.88;7.07;;;-0.20;99.90;;;;;;5101026;28;20020;-36
2024/01/08 08:55:35;;;;;;;8.52;6.10;;;-0.20;99.90;;;;;;5101035;28;20030;-36
2024/01/08 08:58:01;;;;;;;10.30;6.35;;;-0.20;99.90;;;;;;5101051;28;20704;-37
2024/01/08 09:00:27;;;;;;;8.05;6.57;;;-0.20;99.90;;;;;;5100526;28;20031;-38
2024/01/08 09:02:54;;;;;;;9.75;7.57;;;-0.20;99.90;;;;;;5098817;28;20024;-37
2024/01/08 09:05:20;;;;;;;10.05;7.85;;;-0.20;99.90;;;;;;5098731;28;20100;-36
2024/01/08 09:07:46;;;;;;;10.83;7.27;;;-0.30;99.90;;;;;;5100426;28;20031;-39
2024/01/08 09:10:11;;;;;;;11.30;7.90;;;-0.30;99.90;;;;;;5098616;28;20036;-37
2024/01/08 09:12:37;;;;;;;10.43;7.43;;;-0.30;99.90;;;;;;5098362;28;20066;-38
2024/01/08 09:15:03;;;;;;;9.43;7.15;;;-0.30;99.90;;;;;;5101233;28;20135;-37
2024/01/08 09:17:30;;;;;;;12.80;8.05;;;-0.30;99.90;;;;;;5100536;28;20085;-37
2024/01/08 09:19:55;;;;;;;13.40;9.77;;;-0.30;99.90;;;;;;5101142;28;20073;-38
2024/01/08 09:22:21;;;;;;;10.87;7.47;;;-0.30;99.90;;;;;;5101769;28;20561;-37
2024/01/08 09:24:47;;;;;;;10.30;6.97;;;-0.30;99.90;;;;;;5100727;28;20036;-37
2024/01/08 09:27:12;;;;;;;11.20;7.57;;;-0.30;99.90;;;;;;5080281;28;20028;-38
2024/01/08 09:29:38;;;;;;;10.90;8.40;;;-0.30;99.90;;;;;;5095586;28;20592;-37
2024/01/08 09:32:04;;;;;;;11.13;7.80;;;-0.30;99.90;;;;;;5100853;28;20594;-36
2024/01/08 09:34:30;;;;;;;10.80;8.13;;;-0.20;99.90;;;;;;5101615;28;20076;-37
2024/01/08 09:36:56;;;;;;;9.83;7.77;;;-0.20;99.90;;;;;;5101757;28;20031;-36
2024/01/08 09:39:22;;;;;;;11.57;6.93;;;-0.20;99.90;;;;;;5100515;28;20023;-37
2024/01/08 09:41:48;;;;;;;10.18;7.43;;;-0.20;99.90;;;;;;5100820;28;20059;-35
2024/01/08 09:44:15;;;;;;;9.07;7.55;;;-0.20;99.90;;;;;;5100703;28;20054;-38
2024/01/08 09:46:47;;;;;;;10.38;7.47;;;-0.10;99.90;;;;;;5101567;28;20527;-37
2024/01/08 09:49:14;;;;;;;9.25;7.05;;;-0.10;99.90;;;;;;5101228;28;20023;-39
2024/01/08 09:51:41;;;;;;;9.85;7.35;;;-0.10;99.90;;;;;;5099911;28;20514;-37
2024/01/08 09:54:08;;;;;;;8.43;6.63;;;-0.10;99.90;;;;;;5100755;28;20055;-38
2024/01/08 09:56:33;;;;;;;9.77;7.32;;;0.00;99.90;;;;;;5101549;28;20406;-38
2024/01/08 09:58:59;;;;;;;10.38;7.35;;;0.00;99.90;;;;;;5098586;28;20039;-38
2024/01/08 10:01:25;;;;;;;11.27;8.00;;;0.00;99.90;;;;;;5100854;28;20119;-38
2024/01/08 10:03:52;;;;;;;9.48;7.25;;;0.00;99.90;;;;;;5099881;28;20112;-38
2024/01/08 10:06:18;;;;;;;8.65;6.88;;;0.00;99.90;;;;;;5098552;28;20047;-39
2024/01/08 10:08:43;;;;;;;9.25;7.13;;;0.00;99.90;;;;;;5100294;28;20084;-37
2024/01/08 10:11:11;;;;;;;8.55;6.90;;;0.00;99.90;;;;;;5100001;28;20381;-38
2024/01/08 10:13:36;;;;;;;11.35;8.40;;;0.10;99.90;;;;;;5099853;28;20024;-37
2024/01/08 10:16:02;;;;;;;10.52;7.78;;;0.10;99.90;;;;;;5099241;28;20039;-38
2024/01/08 10:18:31;;;;;;;8.77;6.72;;;0.10;99.90;;;;;;5100580;28;20028;-37
2024/01/08 10:21:25;;;;;;;8.77;7.05;;;0.10;99.90;;;;;;5097102;28;20051;-37
2024/01/08 10:23:50;;;;;;;9.63;7.18;;;0.10;99.90;;;;;;5095145;28;20144;-38
2024/01/08 10:26:17;;;;;;;8.93;6.68;;;0.10;99.90;;;;;;5098728;28;20560;-37
2024/01/08 10:28:45;;;;;;;8.95;7.15;;;0.20;99.90;;;;;;5098552;28;20047;-37
2024/01/08 10:31:12;;;;;;;10.07;7.40;;;0.20;99.90;;;;;;5100175;28;20683;-37
2024/01/08 10:33:38;;;;;;;9.85;7.03;;;0.20;99.90;;;;;;5100552;28;20055;-37
2024/01/08 10:36:04;;;;;;;10.55;7.10;;;0.20;99.90;;;;;;5100350;28;20200;-37
2024/01/08 10:38:32;;;;;;;10.18;6.82;;;0.20;99.90;;;;;;5099948;28;20126;-37
2024/01/08 10:41:00;;;;;;;10.02;7.18;;;0.30;99.90;;;;;;5098941;28;20023;-38
2024/01/08 10:43:30;;;;;;;11.38;8.13;;;0.30;99.90;;;;;;5099437;28;20047;-38
2024/01/08 10:46:02;;;;;;;10.27;7.47;;;0.20;99.90;;;;;;5100116;28;20518;-39
2024/01/08 10:48:41;;;;;;;10.25;6.82;;;0.20;99.90;;;;;;5099590;28;20385;-37
2024/01/08 10:51:11;;;;;;;10.88;7.68;;;0.20;99.90;;;;;;5099941;28;20029;-37
2024/01/08 10:53:47;;;;;;;9.95;7.20;;;0.10;99.90;;;;;;5099566;28;20043;-37
2024/01/08 10:56:15;;;;;;;9.00;6.68;;;0.10;99.90;;;;;;5098521;28;20032;-38
2024/01/08 10:59:08;;;;;;;8.43;6.53;;;0.20;99.90;;;;;;5099480;28;20760;-38
2024/01/08 11:01:36;;;;;;;10.13;6.13;;;0.30;99.90;;;;;;5098520;28;20570;-39
2024/01/08 11:04:03;;;;;;;7.68;6.22;;;0.40;99.90;;;;;;5098772;28;20131;-38
2024/01/08 11:06:36;;;;;;;7.38;6.45;;;0.50;99.90;;;;;;5099144;28;20058;-39
2024/01/08 11:09:04;;;;;;;9.43;7.13;;;0.50;99.90;;;;;;5098752;28;20027;-38
2024/01/08 11:11:33;;;;;;;9.95;7.10;;;0.50;99.90;;;;;;5100198;28;20067;-37
2024/01/08 11:13:59;;;;;;;6.47;5.85;;;0.60;99.90;;;;;;5099516;28;20027;-37
2024/01/08 11:16:29;;;;;;;8.98;6.78;;;0.60;99.90;;;;;;5098729;28;20024;-38
2024/01/08 11:19:24;;;;;;;8.95;6.75;;;0.60;99.90;;;;;;5098655;28;20592;-40
2024/01/08 11:21:55;;;;;;;8.98;6.70;;;0.60;99.90;;;;;;5082289;28;20100;-37
2024/01/08 11:24:21;;;;;;;8.43;6.00;;;0.60;99.90;;;;;;5098720;28;20051;-43
2024/01/08 11:26:49;;;;;;;7.22;6.13;;;0.60;99.90;;;;;;5100189;28;20058;-38
2024/01/08 11:29:16;;;;;;;7.35;5.43;;;0.60;99.90;;;;;;5098462;28;20257;-37
2024/01/08 11:31:48;;;;;;;6.22;5.47;;;0.70;99.90;;;;;;5098700;28;20076;-38
2024/01/08 11:34:32;;;;;;;7.43;5.55;;;0.70;99.90;;;;;;5098665;28;20028;-38
2024/01/08 11:37:13;;;;;;;7.22;5.53;;;0.70;99.90;;;;;;5098837;28;20035;-38
2024/01/08 11:39:40;;;;;;;7.65;5.30;;;0.80;99.90;;;;;;5099183;28;20020;-38
2024/01/08 11:42:07;;;;;;;6.75;4.97;;;0.80;99.90;;;;;;5098147;28;20088;-38
2024/01/08 11:44:33;;;;;;;6.47;5.75;;;0.80;99.90;;;;;;5098431;28;20034;-38
2024/01/08 11:46:59;;;;;;;7.15;5.95;;;0.80;99.90;;;;;;5098715;28;20052;-38
2024/01/08 11:49:24;;;;;;;8.68;4.97;;;0.80;99.90;;;;;;5098288;28;20097;-39
2024/01/08 11:51:55;;;;;;;7.70;5.20;;;0.70;99.90;;;;;;5098274;28;20780;-37
2024/01/08 11:54:21;;;;;;;6.25;4.50;;;0.60;99.90;;;;;;5097532;28;20109;-38
2024/01/08 11:56:47;;;;;;;6.57;4.40;;;0.50;99.90;;;;;;5097722;28;20027;-37
2024/01/08 11:59:12;;;;;;;4.70;4.20;;;0.50;99.90;;;;;;5095837;28;20035;-39
2024/01/08 12:01:38;;;;;;;5.00;3.83;;;0.50;99.90;;;;;;5097433;28;20035;-38
2024/01/08 12:04:04;;;;;;;5.55;4.25;;;0.50;99.90;;;;;;5097767;28;20119;-38
2024/01/08 12:06:30;;;;;;;4.95;4.10;;;0.50;99.90;;;;;;5097635;28;20700;-39
2024/01/08 12:08:56;;;;;;;5.82;4.40;;;0.50;99.90;;;;;;5100274;28;20015;-38
2024/01/08 12:11:26;;;;;;;5.40;4.03;;;0.50;99.90;;;;;;5103551;28;20042;-37
2024/01/08 12:13:53;;;;;;;4.10;3.67;;;0.60;99.90;;;;;;5103096;28;20042;-38
2024/01/08 12:16:20;;;;;;;7.45;4.50;;;0.60;99.90;;;;;;5102966;28;20052;-38
2024/01/08 12:18:45;;;;;;;5.47;4.07;;;0.60;99.90;;;;;;5103423;28;20045;-38
2024/01/08 12:21:11;;;;;;;5.45;4.32;;;0.60;99.90;;;;;;5101060;28;20644;-38
2024/01/08 12:23:36;;;;;;;5.28;3.97;;;0.60;99.90;;;;;;5102659;28;20714;-39
2024/01/08 12:26:03;;;;;;;4.30;3.30;;;0.60;99.90;;;;;;5101287;28;20043;-38
2024/01/08 12:28:30;;;;;;;4.70;3.80;;;0.60;99.90;;;;;;5103068;28;20081;-37
2024/01/08 12:30:58;;;;;;;5.40;3.70;;;0.70;99.90;;;;;;5102190;28;20542;-36
2024/01/08 12:33:24;;;;;;;4.78;3.65;;;0.70;99.90;;;;;;5102228;28;20027;-37
2024/01/08 12:35:57;;;;;;;3.90;3.15;;;0.70;99.90;;;;;;5102470;28;20027;-39
2024/01/08 12:38:23;;;;;;;4.85;3.75;;;0.70;99.90;;;;;;5102243;28;20124;-36
2024/01/08 12:40:52;;;;;;;4.47;3.50;;;0.80;99.90;;;;;;5101765;28;20276;-38
2024/01/08 12:43:19;;;;;;;5.35;4.28;;;0.80;99.90;;;;;;5101969;28;20023;-38